createdAt,value
2023-05-05T00:03:42.186Z,42.5
2023-05-05T00:09:48.093Z,42.5
2023-05-05T00:15:53.069Z,42.5
2023-05-05T00:21:58.910Z,42.5
2023-05-05T00:28:04.601Z,42.5
2023-05-05T00:34:10.268Z,42.6
2023-05-05T00:40:16.179Z,42.5
2023-05-05T00:46:22.802Z,42.6
2023-05-05T00:52:27.790Z,42.6
2023-05-05T00:58:33.555Z,42.6
2023-05-05T01:04:38.606Z,42.5
2023-05-05T01:10:44.703Z,42.6
2023-05-05T01:16:50.225Z,42.5
2023-05-05T01:22:55.418Z,42.6
2023-05-05T01:29:01.394Z,42.6
2023-05-05T01:35:07.403Z,42.5
2023-05-05T01:41:12.713Z,42.6
2023-05-05T01:47:18.341Z,42.6
2023-05-05T01:53:24.074Z,42.6
2023-05-05T01:59:29.899Z,42.6
2023-05-05T02:05:35.420Z,42.6
2023-05-05T02:11:41.607Z,42.6
2023-05-05T02:17:47.244Z,42.6
2023-05-05T02:23:52.810Z,42.7
2023-05-05T02:29:58.729Z,42.7
2023-05-05T02:36:04.738Z,42.7
2023-05-05T02:42:10.305Z,42.7
2023-05-05T02:48:16.268Z,42.7
2023-05-05T02:54:22.134Z,42.7
2023-05-05T03:00:28.028Z,42.8
2023-05-05T03:06:34.480Z,42.8
2023-05-05T03:12:39.842Z,42.7
2023-05-05T03:18:45.641Z,42.8
2023-05-05T03:24:51.355Z,42.8
2023-05-05T03:30:57.101Z,42.8
2023-05-05T03:37:02.940Z,42.8
2023-05-05T03:43:08.545Z,42.8
2023-05-05T03:49:14.463Z,42.7
2023-05-05T03:55:20.116Z,42.7
2023-05-05T04:01:26.014Z,42.7
2023-05-05T04:07:31.656Z,42.6
2023-05-05T04:13:37.157Z,42.6
2023-05-05T04:19:42.992Z,42.6
2023-05-05T04:25:48.306Z,42.7
2023-05-05T04:31:54.353Z,42.6
2023-05-05T04:37:59.681Z,42.7
2023-05-05T04:44:05.481Z,42.5
2023-05-05T04:50:11.470Z,42.6
2023-05-05T04:56:17.057Z,42.4
2023-05-05T05:02:23.236Z,42.6
2023-05-05T05:08:28.824Z,42.4
2023-05-05T05:14:34.318Z,42.5
2023-05-05T05:20:39.987Z,42.6
2023-05-05T05:26:45.466Z,42.4
2023-05-05T05:32:51.731Z,42.5
2023-05-05T05:38:57.470Z,42.5
2023-05-05T05:45:03.048Z,42.6
2023-05-05T05:51:08.769Z,42.6
2023-05-05T05:57:14.505Z,42.6
2023-05-05T06:03:21.063Z,42.5
2023-05-05T06:09:26.394Z,42.6
2023-05-05T06:15:32.349Z,42.5
2023-05-05T06:21:37.876Z,42.6
2023-05-05T06:27:43.627Z,42.5
2023-05-05T06:33:48.978Z,42.6
2023-05-05T06:39:54.379Z,42.4
2023-05-05T06:46:00.443Z,42.4
2023-05-05T06:52:06.147Z,42.3
2023-05-05T06:58:11.908Z,42.3
2023-05-05T07:04:18.177Z,42.3
2023-05-05T07:10:24.091Z,42.4
2023-05-05T07:16:29.953Z,42.3
2023-05-05T07:22:36.260Z,42.3
2023-05-05T07:28:42.260Z,42.3
2023-05-05T07:34:48.030Z,42.2
2023-05-05T07:40:53.812Z,42.1
2023-05-05T07:46:59.418Z,42.1
2023-05-05T07:53:17.027Z,42.1
2023-05-05T07:59:23.007Z,42
2023-05-05T08:05:28.577Z,42
2023-05-05T08:11:34.219Z,41.9
2023-05-05T08:17:39.579Z,41.8
2023-05-05T08:23:45.088Z,41.8
2023-05-05T08:29:50.856Z,41.8
2023-05-05T08:35:56.442Z,41.7
2023-05-05T08:42:02.075Z,41.7
2023-05-05T08:48:08.216Z,41.7
2023-05-05T08:54:13.807Z,41.7
2023-05-05T09:00:19.363Z,41.6
2023-05-05T09:06:24.950Z,41.6
2023-05-05T09:12:30.911Z,41.6
2023-05-05T09:18:36.884Z,41.6
2023-05-05T09:24:42.307Z,41.6
2023-05-05T09:30:48.908Z,41.5
2023-05-05T09:36:54.874Z,41.5
2023-05-05T09:43:00.623Z,41.5
2023-05-05T09:49:06.275Z,41.5
2023-05-05T09:55:11.747Z,41.6
2023-05-05T10:01:17.745Z,41.5
2023-05-05T10:07:23.940Z,41.6
2023-05-05T10:13:29.510Z,41.5
2023-05-05T10:19:35.087Z,41.5
2023-05-05T10:25:41.303Z,41.5
2023-05-05T10:31:47.092Z,41.5
2023-05-05T10:37:52.451Z,41.5
2023-05-05T10:43:57.992Z,41.5
2023-05-05T10:50:03.963Z,41.4
2023-05-05T10:56:09.742Z,41.5
2023-05-05T11:02:15.562Z,41.6
2023-05-05T11:08:20.781Z,41.5
2023-05-05T11:14:26.249Z,41.5
2023-05-05T11:20:31.829Z,41.5
2023-05-05T11:26:37.633Z,41.4
2023-05-05T11:32:43.205Z,41.4
2023-05-05T11:38:48.758Z,41.4
2023-05-05T11:44:53.672Z,41.4
2023-05-05T11:50:59.146Z,41.4
2023-05-05T11:57:04.511Z,41.4
2023-05-05T12:03:10.242Z,41.4
2023-05-05T12:09:15.579Z,41.4
2023-05-05T12:15:21.562Z,41.4
2023-05-05T12:21:27.384Z,41.3
2023-05-05T12:27:33.148Z,41.3
2023-05-05T12:33:38.718Z,41.3
2023-05-05T12:39:43.526Z,41.3
2023-05-05T12:45:49.467Z,41.3
2023-05-05T12:51:55.314Z,41.3
2023-05-05T12:58:00.797Z,41.4
2023-05-05T13:04:06.773Z,41.3
2023-05-05T13:10:13.152Z,41.3
2023-05-05T13:16:19.282Z,41.4
2023-05-05T13:22:24.768Z,41.4
2023-05-05T13:28:30.688Z,41.4
2023-05-05T13:34:35.902Z,41.4
2023-05-05T13:40:41.900Z,41.4
2023-05-05T13:46:46.896Z,41.4
2023-05-05T13:52:52.387Z,41.4
2023-05-05T13:58:58.162Z,41.5
2023-05-05T14:05:04.151Z,41.5
2023-05-05T14:11:10.016Z,41.4
2023-05-05T14:17:15.697Z,41.4
2023-05-05T14:23:21.495Z,41.5
2023-05-05T14:29:27.439Z,41.5
2023-05-05T14:35:32.637Z,41.5
2023-05-05T14:41:38.194Z,41.5
2023-05-05T14:47:43.994Z,41.6
2023-05-05T14:53:49.202Z,41.7
2023-05-05T14:59:54.546Z,41.5
2023-05-05T15:05:59.902Z,41.5
2023-05-05T15:12:07.568Z,41.5
2023-05-05T15:18:13.057Z,41.6
2023-05-05T15:24:18.885Z,41.6
2023-05-05T15:30:24.218Z,41.6
2023-05-05T15:36:29.646Z,41.6
2023-05-05T15:42:35.544Z,41.6
2023-05-05T15:48:41.466Z,41.6
2023-05-05T15:54:47.514Z,41.7
2023-05-05T16:00:53.538Z,41.6
2023-05-05T16:06:59.685Z,41.7
2023-05-05T16:13:05.672Z,41.7
2023-05-05T16:19:11.322Z,41.6
2023-05-05T16:25:17.463Z,41.7
2023-05-05T16:31:23.608Z,41.7
2023-05-05T16:37:29.191Z,41.7
2023-05-05T16:43:34.358Z,41.7
2023-05-05T16:49:40.530Z,41.8
2023-05-05T16:55:46.582Z,41.8
2023-05-05T17:01:52.390Z,41.8
2023-05-05T17:07:58.487Z,41.8
2023-05-05T17:14:04.460Z,41.8
2023-05-05T17:20:10.474Z,41.8
2023-05-05T17:26:16.425Z,41.7
2023-05-05T17:32:22.423Z,41.7
2023-05-05T17:38:28.248Z,41.8
2023-05-05T17:44:34.578Z,41.7
2023-05-05T17:50:41.346Z,41.9
2023-05-05T17:56:48.051Z,41.9
2023-05-05T18:02:55.253Z,41.9
2023-05-05T18:09:00.844Z,41.8
2023-05-05T18:15:06.152Z,41.9
2023-05-05T18:21:12.402Z,41.9
2023-05-05T18:27:18.151Z,41.9
2023-05-05T18:33:23.712Z,42
2023-05-05T18:39:29.317Z,42
2023-05-05T18:45:35.284Z,42
2023-05-05T18:51:40.601Z,42.1
2023-05-05T18:57:46.702Z,42.1
2023-05-05T19:03:52.623Z,42.1
2023-05-05T19:09:58.975Z,42.1
2023-05-05T19:16:04.971Z,42.2
2023-05-05T19:22:11.335Z,42.2
2023-05-05T19:28:17.170Z,42.2
2023-05-05T19:34:23.291Z,42.5
2023-05-05T19:40:29.298Z,42.9
2023-05-05T19:46:35.735Z,42.8
2023-05-05T19:52:41.869Z,43
2023-05-05T19:58:50.911Z,43
2023-05-05T20:04:57.107Z,43.2
2023-05-05T20:11:03.315Z,43.1
2023-05-05T20:17:09.539Z,43.1
2023-05-05T20:23:15.672Z,43
2023-05-05T20:29:21.870Z,43.2
2023-05-05T20:35:27.665Z,43.4
2023-05-05T20:41:33.492Z,43.1
2023-05-05T20:47:39.658Z,43.1
2023-05-05T20:53:45.628Z,43.2
2023-05-05T20:59:51.156Z,43.3
2023-05-05T21:05:57.182Z,43.3
2023-05-05T21:12:03.106Z,43.3
2023-05-05T21:18:08.724Z,43.6
2023-05-05T21:24:14.866Z,43.4
2023-05-05T21:30:21.267Z,43.4
2023-05-05T21:36:26.881Z,43.6
2023-05-05T21:42:31.808Z,43.7
2023-05-05T21:48:37.850Z,43.6
2023-05-05T21:54:43.348Z,43.7
2023-05-05T22:00:49.154Z,43.8
2023-05-05T22:06:53.947Z,43.8
2023-05-05T22:12:59.927Z,44.1
2023-05-05T22:19:06.113Z,43.8
2023-05-05T22:25:12.351Z,44
2023-05-05T22:31:18.448Z,43.9
2023-05-05T22:37:24.411Z,44
2023-05-05T22:43:30.073Z,44
2023-05-05T22:49:35.978Z,44
2023-05-05T22:55:41.728Z,44.2
2023-05-05T23:01:47.131Z,44.3
2023-05-05T23:07:53.155Z,44.3
2023-05-05T23:13:58.676Z,44.2
2023-05-05T23:20:04.628Z,44.4
2023-05-05T23:26:10.425Z,44.4
2023-05-05T23:32:16.482Z,44.3
2023-05-05T23:38:22.178Z,44.7
2023-05-05T23:44:27.568Z,44.7
2023-05-05T23:50:33.003Z,44.7
2023-05-05T23:56:38.811Z,44.8
